sensor_id;sensor_type;location;lat;lon;timestamp;P1;durP1;ratioP1;P2;durP2;ratioP2
8803;SDS011;4438;50.890;4.726;2022-08-11T00:01:23;4.03;;;3.60;;
8803;SDS011;4438;50.890;4.726;2022-08-11T00:03:56;3.77;;;3.47;;
8803;SDS011;4438;50.890;4.726;2022-08-11T00:06:28;3.80;;;3.50;;
8803;SDS011;4438;50.890;4.726;2022-08-11T00:08:55;4.40;;;3.80;;
8803;SDS011;4438;50.890;4.726;2022-08-11T00:11:21;4.20;;;3.80;;
8803;SDS011;4438;50.890;4.726;2022-08-11T00:13:56;4.17;;;3.83;;
8803;SDS011;4438;50.890;4.726;2022-08-11T00:16:23;4.80;;;3.87;;
8803;SDS011;4438;50.890;4.726;2022-08-11T00:18:50;5.53;;;4.20;;
8803;SDS011;4438;50.890;4.726;2022-08-11T00:21:17;4.97;;;4.20;;
8803;SDS011;4438;50.890;4.726;2022-08-11T00:23:46;4.73;;;4.30;;
8803;SDS011;4438;50.890;4.726;2022-08-11T00:26:12;4.70;;;4.30;;
8803;SDS011;4438;50.890;4.726;2022-08-11T00:28:39;4.57;;;4.20;;
8803;SDS011;4438;50.890;4.726;2022-08-11T00:33:47;5.00;;;4.07;;
8803;SDS011;4438;50.890;4.726;2022-08-11T00:36:15;4.93;;;4.43;;
8803;SDS011;4438;50.890;4.726;2022-08-11T00:38:42;4.90;;;4.50;;
8803;SDS011;4438;50.890;4.726;2022-08-11T00:41:12;5.00;;;4.50;;
8803;SDS011;4438;50.890;4.726;2022-08-11T00:49:15;5.13;;;4.63;;
8803;SDS011;4438;50.890;4.726;2022-08-11T00:54:26;5.10;;;4.57;;
8803;SDS011;4438;50.890;4.726;2022-08-11T00:59:47;4.97;;;4.57;;
8803;SDS011;4438;50.890;4.726;2022-08-11T01:08:20;5.80;;;5.27;;
8803;SDS011;4438;50.890;4.726;2022-08-11T01:13:14;5.40;;;4.90;;
8803;SDS011;4438;50.890;4.726;2022-08-11T01:20:44;5.27;;;4.87;;
8803;SDS011;4438;50.890;4.726;2022-08-11T01:26:12;5.20;;;4.60;;
8803;SDS011;4438;50.890;4.726;2022-08-11T01:44:37;5.90;;;5.40;;
8803;SDS011;4438;50.890;4.726;2022-08-11T01:50:17;5.93;;;5.40;;
8803;SDS011;4438;50.890;4.726;2022-08-11T01:52:56;6.07;;;5.50;;
8803;SDS011;4438;50.890;4.726;2022-08-11T01:58:32;6.07;;;5.47;;
8803;SDS011;4438;50.890;4.726;2022-08-11T02:06:17;7.83;;;6.50;;
8803;SDS011;4438;50.890;4.726;2022-08-11T02:09:15;6.63;;;5.43;;
8803;SDS011;4438;50.890;4.726;2022-08-11T02:11:45;6.10;;;5.50;;
8803;SDS011;4438;50.890;4.726;2022-08-11T02:22:37;6.23;;;5.70;;
8803;SDS011;4438;50.890;4.726;2022-08-11T02:31:32;5.73;;;5.23;;
8803;SDS011;4438;50.890;4.726;2022-08-11T02:33:47;5.40;;;5.00;;
8803;SDS011;4438;50.890;4.726;2022-08-11T02:36:16;5.47;;;5.03;;
8803;SDS011;4438;50.890;4.726;2022-08-11T02:41:37;5.60;;;5.20;;
8803;SDS011;4438;50.890;4.726;2022-08-11T02:44:45;5.53;;;5.03;;
8803;SDS011;4438;50.890;4.726;2022-08-11T02:49:55;5.47;;;4.97;;
8803;SDS011;4438;50.890;4.726;2022-08-11T02:55:23;5.27;;;4.87;;
8803;SDS011;4438;50.890;4.726;2022-08-11T02:57:55;5.57;;;4.97;;
8803;SDS011;4438;50.890;4.726;2022-08-11T03:00:22;5.80;;;5.17;;
8803;SDS011;4438;50.890;4.726;2022-08-11T03:02:54;5.47;;;5.07;;
8803;SDS011;4438;50.890;4.726;2022-08-11T03:08:28;5.37;;;4.97;;
8803;SDS011;4438;50.890;4.726;2022-08-11T03:14:07;6.10;;;4.77;;
8803;SDS011;4438;50.890;4.726;2022-08-11T03:16:50;5.63;;;5.13;;
8803;SDS011;4438;50.890;4.726;2022-08-11T03:30:16;5.40;;;5.00;;
8803;SDS011;4438;50.890;4.726;2022-08-11T03:32:23;5.00;;;4.50;;
8803;SDS011;4438;50.890;4.726;2022-08-11T03:34:51;5.30;;;4.90;;
8803;SDS011;4438;50.890;4.726;2022-08-11T03:37:27;4.87;;;4.57;;
8803;SDS011;4438;50.890;4.726;2022-08-11T03:43:51;5.10;;;4.60;;
8803;SDS011;4438;50.890;4.726;2022-08-11T03:45:54;4.80;;;4.40;;
8803;SDS011;4438;50.890;4.726;2022-08-11T03:48:39;5.13;;;4.63;;
8803;SDS011;4438;50.890;4.726;2022-08-11T04:18:09;5.70;;;5.20;;
8803;SDS011;4438;50.890;4.726;2022-08-11T04:20:56;5.40;;;4.90;;
8803;SDS011;4438;50.890;4.726;2022-08-11T04:23:23;6.00;;;4.80;;
8803;SDS011;4438;50.890;4.726;2022-08-11T04:26:04;5.90;;;5.00;;
8803;SDS011;4438;50.890;4.726;2022-08-11T04:31:50;5.40;;;5.00;;
8803;SDS011;4438;50.890;4.726;2022-08-11T04:50:53;5.37;;;4.93;;
8803;SDS011;4438;50.890;4.726;2022-08-11T04:53:44;5.60;;;5.10;;
8803;SDS011;4438;50.890;4.726;2022-08-11T04:56:34;5.90;;;5.37;;
8803;SDS011;4438;50.890;4.726;2022-08-11T05:08:15;5.27;;;4.87;;
8803;SDS011;4438;50.890;4.726;2022-08-11T05:13:28;5.57;;;5.07;;
8803;SDS011;4438;50.890;4.726;2022-08-11T05:16:17;6.33;;;5.83;;
8803;SDS011;4438;50.890;4.726;2022-08-11T05:19:02;5.47;;;4.97;;
8803;SDS011;4438;50.890;4.726;2022-08-11T05:21:54;5.67;;;5.17;;
8803;SDS011;4438;50.890;4.726;2022-08-11T05:24:41;6.30;;;5.70;;
8803;SDS011;4438;50.890;4.726;2022-08-11T05:30:46;5.03;;;4.63;;
8803;SDS011;4438;50.890;4.726;2022-08-11T05:33:33;6.13;;;5.63;;
8803;SDS011;4438;50.890;4.726;2022-08-11T05:36:30;5.93;;;5.43;;
8803;SDS011;4438;50.890;4.726;2022-08-11T05:39:00;7.43;;;6.20;;
8803;SDS011;4438;50.890;4.726;2022-08-11T05:41:45;6.70;;;5.70;;
8803;SDS011;4438;50.890;4.726;2022-08-11T05:44:31;6.70;;;6.00;;
8803;SDS011;4438;50.890;4.726;2022-08-11T05:47:25;6.80;;;6.10;;
8803;SDS011;4438;50.890;4.726;2022-08-11T05:50:11;9.67;;;6.30;;
8803;SDS011;4438;50.890;4.726;2022-08-11T05:52:57;6.90;;;6.30;;
8803;SDS011;4438;50.890;4.726;2022-08-11T05:55:43;7.60;;;6.80;;
8803;SDS011;4438;50.890;4.726;2022-08-11T05:58:32;7.13;;;6.20;;
8803;SDS011;4438;50.890;4.726;2022-08-11T06:00:58;8.03;;;6.97;;
8803;SDS011;4438;50.890;4.726;2022-08-11T06:03:28;7.40;;;6.67;;
8803;SDS011;4438;50.890;4.726;2022-08-11T06:05:55;8.17;;;7.07;;
8803;SDS011;4438;50.890;4.726;2022-08-11T06:08:29;10.00;;;7.60;;
8803;SDS011;4438;50.890;4.726;2022-08-11T06:10:59;8.37;;;7.30;;
8803;SDS011;4438;50.890;4.726;2022-08-11T06:13:25;15.40;;;10.10;;
8803;SDS011;4438;50.890;4.726;2022-08-11T06:15:52;13.50;;;9.30;;
8803;SDS011;4438;50.890;4.726;2022-08-11T06:18:20;23.37;;;15.47;;
8803;SDS011;4438;50.890;4.726;2022-08-11T06:20:46;11.03;;;9.80;;
8803;SDS011;4438;50.890;4.726;2022-08-11T06:23:13;25.97;;;13.13;;
8803;SDS011;4438;50.890;4.726;2022-08-11T06:25:42;10.93;;;9.33;;
8803;SDS011;4438;50.890;4.726;2022-08-11T06:28:08;11.70;;;8.50;;
8803;SDS011;4438;50.890;4.726;2022-08-11T06:30:35;11.80;;;7.73;;
8803;SDS011;4438;50.890;4.726;2022-08-11T06:36:09;11.53;;;7.13;;
8803;SDS011;4438;50.890;4.726;2022-08-11T06:41:21;12.53;;;7.40;;
8803;SDS011;4438;50.890;4.726;2022-08-11T06:46:39;11.87;;;7.67;;
8803;SDS011;4438;50.890;4.726;2022-08-11T06:49:11;14.13;;;7.53;;
8803;SDS011;4438;50.890;4.726;2022-08-11T06:52:00;9.60;;;6.13;;
8803;SDS011;4438;50.890;4.726;2022-08-11T06:54:34;9.47;;;6.27;;
8803;SDS011;4438;50.890;4.726;2022-08-11T06:57:02;8.33;;;6.43;;
8803;SDS011;4438;50.890;4.726;2022-08-11T06:59:47;7.43;;;5.77;;
8803;SDS011;4438;50.890;4.726;2022-08-11T07:05:09;8.27;;;5.70;;
8803;SDS011;4438;50.890;4.726;2022-08-11T07:13:19;8.57;;;5.00;;
8803;SDS011;4438;50.890;4.726;2022-08-11T07:16:05;8.90;;;5.13;;
8803;SDS011;4438;50.890;4.726;2022-08-11T07:18:32;5.60;;;5.10;;
8803;SDS011;4438;50.890;4.726;2022-08-11T07:24:03;8.77;;;4.50;;
8803;SDS011;4438;50.890;4.726;2022-08-11T07:26:52;4.60;;;4.20;;
8803;SDS011;4438;50.890;4.726;2022-08-11T07:29:38;6.87;;;4.73;;
8803;SDS011;4438;50.890;4.726;2022-08-11T07:32:16;9.10;;;5.47;;
8803;SDS011;4438;50.890;4.726;2022-08-11T07:34:48;5.93;;;4.93;;
8803;SDS011;4438;50.890;4.726;2022-08-11T07:37:17;6.27;;;4.80;;
8803;SDS011;4438;50.890;4.726;2022-08-11T07:39:45;8.10;;;5.00;;
8803;SDS011;4438;50.890;4.726;2022-08-11T07:42:17;8.07;;;5.10;;
8803;SDS011;4438;50.890;4.726;2022-08-11T07:44:45;7.70;;;5.20;;
8803;SDS011;4438;50.890;4.726;2022-08-11T07:47:30;8.33;;;4.63;;
8803;SDS011;4438;50.890;4.726;2022-08-11T07:50:15;5.17;;;4.60;;
8803;SDS011;4438;50.890;4.726;2022-08-11T07:53:01;6.47;;;4.70;;
8803;SDS011;4438;50.890;4.726;2022-08-11T07:55:27;5.40;;;4.90;;
8803;SDS011;4438;50.890;4.726;2022-08-11T07:57:55;5.87;;;4.40;;
8803;SDS011;4438;50.890;4.726;2022-08-11T08:00:43;6.67;;;4.30;;
8803;SDS011;4438;50.890;4.726;2022-08-11T08:03:29;4.37;;;4.03;;
8803;SDS011;4438;50.890;4.726;2022-08-11T08:06:14;6.10;;;4.67;;
8803;SDS011;4438;50.890;4.726;2022-08-11T08:09:00;5.70;;;4.13;;
8803;SDS011;4438;50.890;4.726;2022-08-11T08:11:45;6.57;;;5.60;;
8803;SDS011;4438;50.890;4.726;2022-08-11T08:14:30;14.73;;;6.53;;
8803;SDS011;4438;50.890;4.726;2022-08-11T08:17:15;10.20;;;5.37;;
8803;SDS011;4438;50.890;4.726;2022-08-11T08:20:00;4.43;;;4.03;;
8803;SDS011;4438;50.890;4.726;2022-08-11T08:22:27;5.33;;;4.57;;
8803;SDS011;4438;50.890;4.726;2022-08-11T08:24:54;5.40;;;4.67;;
8803;SDS011;4438;50.890;4.726;2022-08-11T08:27:21;5.10;;;4.47;;
8803;SDS011;4438;50.890;4.726;2022-08-11T08:29:49;5.27;;;4.57;;
8803;SDS011;4438;50.890;4.726;2022-08-11T08:32:37;5.10;;;4.60;;
8803;SDS011;4438;50.890;4.726;2022-08-11T08:35:04;5.30;;;4.80;;
8803;SDS011;4438;50.890;4.726;2022-08-11T08:37:30;5.50;;;4.27;;
8803;SDS011;4438;50.890;4.726;2022-08-11T08:39:56;7.80;;;4.47;;
8803;SDS011;4438;50.890;4.726;2022-08-11T08:42:24;5.37;;;4.23;;
8803;SDS011;4438;50.890;4.726;2022-08-11T08:44:53;5.80;;;4.77;;
8803;SDS011;4438;50.890;4.726;2022-08-11T08:47:21;5.03;;;4.60;;
8803;SDS011;4438;50.890;4.726;2022-08-11T08:49:51;5.07;;;4.33;;
8803;SDS011;4438;50.890;4.726;2022-08-11T08:52:22;6.20;;;4.40;;
8803;SDS011;4438;50.890;4.726;2022-08-11T08:54:51;6.43;;;4.90;;
8803;SDS011;4438;50.890;4.726;2022-08-11T08:57:20;4.60;;;4.20;;
8803;SDS011;4438;50.890;4.726;2022-08-11T08:59:47;4.83;;;4.37;;
8803;SDS011;4438;50.890;4.726;2022-08-11T09:02:14;4.33;;;3.90;;
8803;SDS011;4438;50.890;4.726;2022-08-11T09:04:42;4.20;;;3.80;;
8803;SDS011;4438;50.890;4.726;2022-08-11T09:07:10;5.17;;;4.20;;
8803;SDS011;4438;50.890;4.726;2022-08-11T09:09:37;4.57;;;4.17;;
8803;SDS011;4438;50.890;4.726;2022-08-11T09:12:06;6.37;;;4.47;;
8803;SDS011;4438;50.890;4.726;2022-08-11T09:14:33;7.47;;;4.70;;
8803;SDS011;4438;50.890;4.726;2022-08-11T09:17:19;5.10;;;4.60;;
8803;SDS011;4438;50.890;4.726;2022-08-11T09:19:45;4.83;;;4.43;;
8803;SDS011;4438;50.890;4.726;2022-08-11T09:22:12;5.17;;;4.43;;
8803;SDS011;4438;50.890;4.726;2022-08-11T09:24:57;7.83;;;4.47;;
8803;SDS011;4438;50.890;4.726;2022-08-11T09:27:42;14.33;;;7.03;;
8803;SDS011;4438;50.890;4.726;2022-08-11T09:30:08;11.60;;;5.17;;
8803;SDS011;4438;50.890;4.726;2022-08-11T09:32:36;6.17;;;5.20;;
8803;SDS011;4438;50.890;4.726;2022-08-11T09:35:03;7.23;;;5.03;;
8803;SDS011;4438;50.890;4.726;2022-08-11T09:37:29;5.20;;;4.50;;
8803;SDS011;4438;50.890;4.726;2022-08-11T09:40:15;5.43;;;4.93;;
8803;SDS011;4438;50.890;4.726;2022-08-11T09:42:57;6.67;;;4.40;;
8803;SDS011;4438;50.890;4.726;2022-08-11T09:45:46;8.23;;;4.50;;
8803;SDS011;4438;50.890;4.726;2022-08-11T09:48:15;4.73;;;3.83;;
8803;SDS011;4438;50.890;4.726;2022-08-11T09:50:44;7.03;;;4.20;;
8803;SDS011;4438;50.890;4.726;2022-08-11T09:53:10;4.87;;;4.13;;
8803;SDS011;4438;50.890;4.726;2022-08-11T09:55:37;6.00;;;4.37;;
8803;SDS011;4438;50.890;4.726;2022-08-11T09:58:03;4.93;;;4.20;;
8803;SDS011;4438;50.890;4.726;2022-08-11T10:00:42;4.87;;;4.40;;
8803;SDS011;4438;50.890;4.726;2022-08-11T10:03:12;6.23;;;4.23;;
8803;SDS011;4438;50.890;4.726;2022-08-11T10:05:42;5.13;;;4.63;;
8803;SDS011;4438;50.890;4.726;2022-08-11T10:08:39;6.50;;;4.43;;
8803;SDS011;4438;50.890;4.726;2022-08-11T10:11:08;5.07;;;4.57;;
8803;SDS011;4438;50.890;4.726;2022-08-11T10:13:36;4.97;;;4.57;;
8803;SDS011;4438;50.890;4.726;2022-08-11T10:16:27;5.73;;;4.93;;
8803;SDS011;4438;50.890;4.726;2022-08-11T10:18:53;5.63;;;4.70;;
8803;SDS011;4438;50.890;4.726;2022-08-11T10:21:28;6.07;;;4.90;;
8803;SDS011;4438;50.890;4.726;2022-08-11T10:23:56;6.60;;;4.97;;
8803;SDS011;4438;50.890;4.726;2022-08-11T10:26:42;4.20;;;3.90;;
8803;SDS011;4438;50.890;4.726;2022-08-11T10:29:18;4.63;;;4.23;;
8803;SDS011;4438;50.890;4.726;2022-08-11T10:32:03;6.03;;;4.63;;
8803;SDS011;4438;50.890;4.726;2022-08-11T10:34:49;6.65;;;4.30;;
8803;SDS011;4438;50.890;4.726;2022-08-11T10:37:16;5.00;;;4.47;;
8803;SDS011;4438;50.890;4.726;2022-08-11T10:39:45;4.97;;;4.45;;
8803;SDS011;4438;50.890;4.726;2022-08-11T10:42:11;6.07;;;4.18;;
8803;SDS011;4438;50.890;4.726;2022-08-11T10:44:57;5.15;;;4.47;;
8803;SDS011;4438;50.890;4.726;2022-08-11T10:47:23;4.90;;;4.40;;
8803;SDS011;4438;50.890;4.726;2022-08-11T10:50:02;4.32;;;3.92;;
8803;SDS011;4438;50.890;4.726;2022-08-11T10:52:48;5.35;;;4.05;;
8803;SDS011;4438;50.890;4.726;2022-08-11T10:55:34;4.80;;;4.45;;
8803;SDS011;4438;50.890;4.726;2022-08-11T10:58:20;4.47;;;4.18;;
8803;SDS011;4438;50.890;4.726;2022-08-11T11:01:06;4.32;;;3.92;;
8803;SDS011;4438;50.890;4.726;2022-08-11T11:03:33;4.30;;;3.90;;
8803;SDS011;4438;50.890;4.726;2022-08-11T11:06:03;4.53;;;4.03;;
8803;SDS011;4438;50.890;4.726;2022-08-11T11:08:29;6.28;;;4.32;;
8803;SDS011;4438;50.890;4.726;2022-08-11T11:11:15;4.22;;;3.83;;
8803;SDS011;4438;50.890;4.726;2022-08-11T11:13:47;5.28;;;4.78;;
8803;SDS011;4438;50.890;4.726;2022-08-11T11:16:34;4.05;;;3.63;;
8803;SDS011;4438;50.890;4.726;2022-08-11T11:19:20;6.13;;;5.53;;
8803;SDS011;4438;50.890;4.726;2022-08-11T11:21:50;4.82;;;4.32;;
8803;SDS011;4438;50.890;4.726;2022-08-11T11:24:40;4.97;;;4.03;;
8803;SDS011;4438;50.890;4.726;2022-08-11T11:27:16;5.53;;;4.05;;
8803;SDS011;4438;50.890;4.726;2022-08-11T11:30:02;5.18;;;4.10;;
8803;SDS011;4438;50.890;4.726;2022-08-11T11:32:40;4.00;;;3.60;;
8803;SDS011;4438;50.890;4.726;2022-08-11T11:37:38;4.65;;;4.25;;
8803;SDS011;4438;50.890;4.726;2022-08-11T11:40:09;4.32;;;4.00;;
8803;SDS011;4438;50.890;4.726;2022-08-11T11:42:37;4.40;;;4.03;;
8803;SDS011;4438;50.890;4.726;2022-08-11T11:45:03;4.45;;;4.05;;
8803;SDS011;4438;50.890;4.726;2022-08-11T11:47:30;3.92;;;3.63;;
8803;SDS011;4438;50.890;4.726;2022-08-11T11:49:57;3.97;;;3.67;;
8803;SDS011;4438;50.890;4.726;2022-08-11T11:52:23;6.20;;;3.92;;
8803;SDS011;4438;50.890;4.726;2022-08-11T11:54:51;5.20;;;4.00;;
8803;SDS011;4438;50.890;4.726;2022-08-11T11:57:19;5.82;;;3.75;;
8803;SDS011;4438;50.890;4.726;2022-08-11T12:00:05;4.57;;;3.63;;
8803;SDS011;4438;50.890;4.726;2022-08-11T12:02:50;4.10;;;3.72;;
8803;SDS011;4438;50.890;4.726;2022-08-11T12:05:16;4.15;;;3.58;;
8803;SDS011;4438;50.890;4.726;2022-08-11T12:07:43;4.00;;;3.60;;
8803;SDS011;4438;50.890;4.726;2022-08-11T12:10:29;4.15;;;3.67;;
8803;SDS011;4438;50.890;4.726;2022-08-11T12:12:57;3.80;;;3.50;;
8803;SDS011;4438;50.890;4.726;2022-08-11T12:15:43;4.18;;;3.88;;
8803;SDS011;4438;50.890;4.726;2022-08-11T12:18:09;7.88;;;3.72;;
8803;SDS011;4438;50.890;4.726;2022-08-11T12:20:36;4.95;;;3.60;;
8803;SDS011;4438;50.890;4.726;2022-08-11T12:23:03;6.28;;;4.00;;
8803;SDS011;4438;50.890;4.726;2022-08-11T12:25:48;4.22;;;3.83;;
8803;SDS011;4438;50.890;4.726;2022-08-11T12:28:33;6.30;;;4.10;;
8803;SDS011;4438;50.890;4.726;2022-08-11T12:30:59;3.58;;;3.35;;
8803;SDS011;4438;50.890;4.726;2022-08-11T12:33:25;3.97;;;3.67;;
8803;SDS011;4438;50.890;4.726;2022-08-11T12:35:55;9.45;;;3.72;;
8803;SDS011;4438;50.890;4.726;2022-08-11T12:38:22;4.13;;;3.53;;
8803;SDS011;4438;50.890;4.726;2022-08-11T12:40:48;6.40;;;4.10;;
8803;SDS011;4438;50.890;4.726;2022-08-11T12:43:34;5.00;;;3.80;;
8803;SDS011;4438;50.890;4.726;2022-08-11T12:46:23;4.00;;;3.70;;
8803;SDS011;4438;50.890;4.726;2022-08-11T12:48:55;6.15;;;3.88;;
8803;SDS011;4438;50.890;4.726;2022-08-11T12:51:41;3.78;;;3.47;;
8803;SDS011;4438;50.890;4.726;2022-08-11T12:54:30;4.07;;;3.78;;
8803;SDS011;4438;50.890;4.726;2022-08-11T12:57:04;4.93;;;4.05;;
8803;SDS011;4438;50.890;4.726;2022-08-11T12:59:50;5.30;;;4.15;;
8803;SDS011;4438;50.890;4.726;2022-08-11T13:02:35;4.30;;;3.88;;
8803;SDS011;4438;50.890;4.726;2022-08-11T13:05:20;4.35;;;4.05;;
8803;SDS011;4438;50.890;4.726;2022-08-11T13:07:46;6.40;;;4.22;;
8803;SDS011;4438;50.890;4.726;2022-08-11T13:10:14;4.30;;;3.90;;
8803;SDS011;4438;50.890;4.726;2022-08-11T13:13:04;4.50;;;4.07;;
8803;SDS011;4438;50.890;4.726;2022-08-11T13:15:31;4.10;;;3.70;;
8803;SDS011;4438;50.890;4.726;2022-08-11T13:17:57;4.40;;;4.00;;
8803;SDS011;4438;50.890;4.726;2022-08-11T13:20:24;4.82;;;4.30;;
8803;SDS011;4438;50.890;4.726;2022-08-11T13:22:54;5.90;;;4.07;;
8803;SDS011;4438;50.890;4.726;2022-08-11T13:25:21;4.35;;;3.95;;
8803;SDS011;4438;50.890;4.726;2022-08-11T13:27:48;4.90;;;4.50;;
8803;SDS011;4438;50.890;4.726;2022-08-11T13:30:16;4.40;;;4.00;;
8803;SDS011;4438;50.890;4.726;2022-08-11T13:33:01;4.38;;;3.97;;
8803;SDS011;4438;50.890;4.726;2022-08-11T13:35:29;4.32;;;3.95;;
8803;SDS011;4438;50.890;4.726;2022-08-11T13:37:55;4.70;;;4.40;;
8803;SDS011;4438;50.890;4.726;2022-08-11T13:40:22;5.85;;;4.47;;
8803;SDS011;4438;50.890;4.726;2022-08-11T13:42:50;6.28;;;4.40;;
8803;SDS011;4438;50.890;4.726;2022-08-11T13:45:16;5.40;;;4.20;;
8803;SDS011;4438;50.890;4.726;2022-08-11T13:47:43;4.40;;;4.00;;
8803;SDS011;4438;50.890;4.726;2022-08-11T13:50:09;4.60;;;4.20;;
8803;SDS011;4438;50.890;4.726;2022-08-11T13:52:37;4.28;;;3.88;;
8803;SDS011;4438;50.890;4.726;2022-08-11T13:55:05;4.85;;;4.45;;
8803;SDS011;4438;50.890;4.726;2022-08-11T13:57:32;4.68;;;4.35;;
8803;SDS011;4438;50.890;4.726;2022-08-11T13:59:58;5.88;;;4.13;;
8803;SDS011;4438;50.890;4.726;2022-08-11T14:02:35;4.88;;;4.32;;
8803;SDS011;4438;50.890;4.726;2022-08-11T14:05:04;4.97;;;4.57;;
8803;SDS011;4438;50.890;4.726;2022-08-11T14:07:36;5.22;;;4.18;;
8803;SDS011;4438;50.890;4.726;2022-08-11T14:10:04;4.88;;;4.57;;
8803;SDS011;4438;50.890;4.726;2022-08-11T14:12:32;4.38;;;3.97;;
8803;SDS011;4438;50.890;4.726;2022-08-11T14:15:28;4.40;;;4.10;;
8803;SDS011;4438;50.890;4.726;2022-08-11T14:17:57;4.78;;;4.40;;
8803;SDS011;4438;50.890;4.726;2022-08-11T14:20:27;5.13;;;4.50;;
8803;SDS011;4438;50.890;4.726;2022-08-11T14:23:14;4.60;;;4.30;;
8803;SDS011;4438;50.890;4.726;2022-08-11T14:25:41;4.88;;;4.45;;
8803;SDS011;4438;50.890;4.726;2022-08-11T14:28:27;4.70;;;4.30;;
8803;SDS011;4438;50.890;4.726;2022-08-11T14:30:55;4.70;;;4.30;;
8803;SDS011;4438;50.890;4.726;2022-08-11T14:33:21;5.05;;;4.65;;
8803;SDS011;4438;50.890;4.726;2022-08-11T14:35:47;4.40;;;4.10;;
8803;SDS011;4438;50.890;4.726;2022-08-11T14:38:14;4.53;;;4.15;;
8803;SDS011;4438;50.890;4.726;2022-08-11T14:40:42;5.93;;;4.53;;
8803;SDS011;4438;50.890;4.726;2022-08-11T14:43:31;4.63;;;4.28;;
8803;SDS011;4438;50.890;4.726;2022-08-11T14:46:17;4.82;;;4.40;;
8803;SDS011;4438;50.890;4.726;2022-08-11T14:49:01;4.80;;;4.30;;
8803;SDS011;4438;50.890;4.726;2022-08-11T14:51:28;4.82;;;4.43;;
8803;SDS011;4438;50.890;4.726;2022-08-11T14:53:55;5.20;;;4.72;;
8803;SDS011;4438;50.890;4.726;2022-08-11T14:56:41;6.75;;;4.50;;
8803;SDS011;4438;50.890;4.726;2022-08-11T14:59:08;6.05;;;4.28;;
8803;SDS011;4438;50.890;4.726;2022-08-11T15:01:36;5.13;;;4.10;;
8803;SDS011;4438;50.890;4.726;2022-08-11T15:04:21;4.50;;;4.18;;
8803;SDS011;4438;50.890;4.726;2022-08-11T15:06:47;5.82;;;4.57;;
8803;SDS011;4438;50.890;4.726;2022-08-11T15:09:14;4.57;;;3.90;;
8803;SDS011;4438;50.890;4.726;2022-08-11T15:11:40;4.82;;;4.43;;
8803;SDS011;4438;50.890;4.726;2022-08-11T15:14:25;4.10;;;3.65;;
8803;SDS011;4438;50.890;4.726;2022-08-11T15:17:10;6.47;;;4.28;;
8803;SDS011;4438;50.890;4.726;2022-08-11T15:19:38;5.18;;;4.70;;
8803;SDS011;4438;50.890;4.726;2022-08-11T15:22:25;4.50;;;4.20;;
8803;SDS011;4438;50.890;4.726;2022-08-11T15:25:10;6.68;;;4.25;;
8803;SDS011;4438;50.890;4.726;2022-08-11T15:27:36;4.65;;;4.32;;
8803;SDS011;4438;50.890;4.726;2022-08-11T15:30:21;4.20;;;3.90;;
8803;SDS011;4438;50.890;4.726;2022-08-11T15:33:08;4.68;;;4.10;;
8803;SDS011;4438;50.890;4.726;2022-08-11T15:35:55;5.68;;;4.00;;
8803;SDS011;4438;50.890;4.726;2022-08-11T15:38:44;4.28;;;3.97;;
8803;SDS011;4438;50.890;4.726;2022-08-11T15:41:12;4.68;;;4.28;;
8803;SDS011;4438;50.890;4.726;2022-08-11T15:43:58;4.65;;;4.25;;
8803;SDS011;4438;50.890;4.726;2022-08-11T15:46:49;7.45;;;4.10;;
8803;SDS011;4438;50.890;4.726;2022-08-11T15:49:27;6.68;;;3.92;;
8803;SDS011;4438;50.890;4.726;2022-08-11T15:52:07;5.70;;;4.15;;
8803;SDS011;4438;50.890;4.726;2022-08-11T15:54:34;7.40;;;4.60;;
8803;SDS011;4438;50.890;4.726;2022-08-11T15:57:03;4.38;;;3.95;;
8803;SDS011;4438;50.890;4.726;2022-08-11T15:59:30;6.32;;;4.13;;
8803;SDS011;4438;50.890;4.726;2022-08-11T16:02:17;5.70;;;4.85;;
8803;SDS011;4438;50.890;4.726;2022-08-11T16:05:05;5.72;;;4.88;;
8803;SDS011;4438;50.890;4.726;2022-08-11T16:07:33;4.72;;;4.43;;
8803;SDS011;4438;50.890;4.726;2022-08-11T16:10:12;7.82;;;5.13;;
8803;SDS011;4438;50.890;4.726;2022-08-11T16:12:53;5.20;;;4.10;;
8803;SDS011;4438;50.890;4.726;2022-08-11T16:15:27;5.47;;;4.88;;
8803;SDS011;4438;50.890;4.726;2022-08-11T16:18:28;8.38;;;4.93;;
8803;SDS011;4438;50.890;4.726;2022-08-11T16:21:06;6.82;;;5.72;;
8803;SDS011;4438;50.890;4.726;2022-08-11T16:23:33;5.80;;;5.15;;
8803;SDS011;4438;50.890;4.726;2022-08-11T16:26:00;5.75;;;5.15;;
8803;SDS011;4438;50.890;4.726;2022-08-11T16:28:26;6.35;;;5.63;;
8803;SDS011;4438;50.890;4.726;2022-08-11T16:30:53;9.98;;;5.93;;
8803;SDS011;4438;50.890;4.726;2022-08-11T16:33:21;10.80;;;7.13;;
8803;SDS011;4438;50.890;4.726;2022-08-11T16:35:48;6.43;;;5.68;;
8803;SDS011;4438;50.890;4.726;2022-08-11T16:38:33;6.15;;;4.88;;
8803;SDS011;4438;50.890;4.726;2022-08-11T16:41:04;7.10;;;6.00;;
8803;SDS011;4438;50.890;4.726;2022-08-11T16:43:31;6.20;;;5.00;;
8803;SDS011;4438;50.890;4.726;2022-08-11T16:46:18;7.32;;;5.47;;
8803;SDS011;4438;50.890;4.726;2022-08-11T16:49:04;8.63;;;5.38;;
8803;SDS011;4438;50.890;4.726;2022-08-11T16:51:31;6.07;;;4.38;;
8803;SDS011;4438;50.890;4.726;2022-08-11T16:53:57;4.43;;;3.95;;
8803;SDS011;4438;50.890;4.726;2022-08-11T16:56:26;7.22;;;4.85;;
8803;SDS011;4438;50.890;4.726;2022-08-11T16:58:53;6.63;;;5.20;;
8803;SDS011;4438;50.890;4.726;2022-08-11T17:01:46;7.53;;;5.40;;
8803;SDS011;4438;50.890;4.726;2022-08-11T17:07:06;6.22;;;4.97;;
8803;SDS011;4438;50.890;4.726;2022-08-11T17:09:51;5.22;;;4.32;;
8803;SDS011;4438;50.890;4.726;2022-08-11T17:12:37;6.75;;;5.10;;
8803;SDS011;4438;50.890;4.726;2022-08-11T17:15:22;6.75;;;5.30;;
8803;SDS011;4438;50.890;4.726;2022-08-11T17:18:08;6.82;;;5.97;;
8803;SDS011;4438;50.890;4.726;2022-08-11T17:20:36;5.63;;;5.07;;
8803;SDS011;4438;50.890;4.726;2022-08-11T17:23:02;4.85;;;4.43;;
8803;SDS011;4438;50.890;4.726;2022-08-11T17:25:48;5.57;;;5.07;;
8803;SDS011;4438;50.890;4.726;2022-08-11T17:28:16;5.93;;;4.40;;
8803;SDS011;4438;50.890;4.726;2022-08-11T17:30:43;6.80;;;6.10;;
8803;SDS011;4438;50.890;4.726;2022-08-11T17:33:28;6.43;;;5.20;;
8803;SDS011;4438;50.890;4.726;2022-08-11T17:36:14;6.55;;;5.57;;
8803;SDS011;4438;50.890;4.726;2022-08-11T17:38:43;8.75;;;5.45;;
8803;SDS011;4438;50.890;4.726;2022-08-11T17:41:10;7.75;;;5.38;;
8803;SDS011;4438;50.890;4.726;2022-08-11T17:43:56;6.78;;;4.60;;
8803;SDS011;4438;50.890;4.726;2022-08-11T17:46:41;5.35;;;4.85;;
8803;SDS011;4438;50.890;4.726;2022-08-11T17:49:26;8.85;;;5.90;;
8803;SDS011;4438;50.890;4.726;2022-08-11T17:51:55;5.95;;;4.45;;
8803;SDS011;4438;50.890;4.726;2022-08-11T17:54:40;5.25;;;4.75;;
8803;SDS011;4438;50.890;4.726;2022-08-11T17:57:26;5.95;;;5.30;;
8803;SDS011;4438;50.890;4.726;2022-08-11T18:00:11;4.95;;;4.43;;
8803;SDS011;4438;50.890;4.726;2022-08-11T18:02:38;5.20;;;4.70;;
8803;SDS011;4438;50.890;4.726;2022-08-11T18:05:24;6.97;;;4.88;;
8803;SDS011;4438;50.890;4.726;2022-08-11T18:07:53;9.23;;;4.70;;
8803;SDS011;4438;50.890;4.726;2022-08-11T18:10:39;6.95;;;5.10;;
8803;SDS011;4438;50.890;4.726;2022-08-11T18:13:26;5.93;;;4.82;;
8803;SDS011;4438;50.890;4.726;2022-08-11T18:16:11;4.80;;;4.30;;
8803;SDS011;4438;50.890;4.726;2022-08-11T18:18:56;6.07;;;4.75;;
8803;SDS011;4438;50.890;4.726;2022-08-11T18:21:41;4.85;;;4.45;;
8803;SDS011;4438;50.890;4.726;2022-08-11T18:24:27;5.93;;;4.60;;
8803;SDS011;4438;50.890;4.726;2022-08-11T18:27:13;4.90;;;4.40;;
8803;SDS011;4438;50.890;4.726;2022-08-11T18:30:00;8.70;;;4.50;;
8803;SDS011;4438;50.890;4.726;2022-08-11T18:32:46;5.28;;;4.78;;
8803;SDS011;4438;50.890;4.726;2022-08-11T18:35:32;7.57;;;4.90;;
8803;SDS011;4438;50.890;4.726;2022-08-11T18:38:18;6.65;;;4.70;;
8803;SDS011;4438;50.890;4.726;2022-08-11T18:41:04;7.03;;;5.03;;
8803;SDS011;4438;50.890;4.726;2022-08-11T18:43:50;4.88;;;4.40;;
8803;SDS011;4438;50.890;4.726;2022-08-11T18:46:35;6.78;;;4.32;;
8803;SDS011;4438;50.890;4.726;2022-08-11T18:49:22;8.85;;;4.80;;
8803;SDS011;4438;50.890;4.726;2022-08-11T18:52:08;5.25;;;4.85;;
8803;SDS011;4438;50.890;4.726;2022-08-11T18:54:54;4.78;;;4.38;;
8803;SDS011;4438;50.890;4.726;2022-08-11T18:57:40;8.38;;;4.65;;
8803;SDS011;4438;50.890;4.726;2022-08-11T19:00:25;6.75;;;5.03;;
8803;SDS011;4438;50.890;4.726;2022-08-11T19:03:11;6.35;;;4.80;;
8803;SDS011;4438;50.890;4.726;2022-08-11T19:05:59;6.85;;;4.88;;
8803;SDS011;4438;50.890;4.726;2022-08-11T19:08:51;6.20;;;4.60;;
8803;SDS011;4438;50.890;4.726;2022-08-11T19:11:37;5.25;;;4.70;;
8803;SDS011;4438;50.890;4.726;2022-08-11T19:14:22;5.50;;;4.60;;